sensor_id;sensor_type;location;lat;lon;timestamp;P1;durP1;ratioP1;P2;durP2;ratioP2
53903;SDS011;39812;52.430;16.936;2023-08-08T00:00:10;2.60;;;1.27;;
53903;SDS011;39812;52.430;16.936;2023-08-08T00:02:36;6.40;;;1.48;;
53903;SDS011;39812;52.430;16.936;2023-08-08T00:05:02;3.67;;;1.50;;
53903;SDS011;39812;52.430;16.936;2023-08-08T00:07:28;7.55;;;1.48;;
53903;SDS011;39812;52.430;16.936;2023-08-08T00:09:56;10.15;;;1.88;;
53903;SDS011;39812;52.430;16.936;2023-08-08T00:12:22;3.08;;;1.13;;
53903;SDS011;39812;52.430;16.936;2023-08-08T00:14:48;4.53;;;1.80;;
53903;SDS011;39812;52.430;16.936;2023-08-08T00:17:14;6.00;;;1.48;;
53903;SDS011;39812;52.430;16.936;2023-08-08T00:19:40;4.47;;;1.40;;
53903;SDS011;39812;52.430;16.936;2023-08-08T00:22:06;4.18;;;1.50;;
53903;SDS011;39812;52.430;16.936;2023-08-08T00:24:31;5.57;;;1.52;;
53903;SDS011;39812;52.430;16.936;2023-08-08T00:26:57;3.17;;;1.60;;
53903;SDS011;39812;52.430;16.936;2023-08-08T00:29:22;5.03;;;1.27;;
53903;SDS011;39812;52.430;16.936;2023-08-08T00:31:48;4.97;;;1.92;;
53903;SDS011;39812;52.430;16.936;2023-08-08T00:34:14;6.70;;;2.03;;
53903;SDS011;39812;52.430;16.936;2023-08-08T00:36:39;6.35;;;1.50;;
53903;SDS011;39812;52.430;16.936;2023-08-08T00:39:05;6.05;;;2.05;;
53903;SDS011;39812;52.430;16.936;2023-08-08T00:41:30;5.63;;;1.50;;
53903;SDS011;39812;52.430;16.936;2023-08-08T00:43:56;3.88;;;1.50;;
53903;SDS011;39812;52.430;16.936;2023-08-08T00:46:22;4.90;;;1.60;;
53903;SDS011;39812;52.430;16.936;2023-08-08T00:48:49;4.30;;;1.52;;
53903;SDS011;39812;52.430;16.936;2023-08-08T00:51:18;3.22;;;1.50;;
53903;SDS011;39812;52.430;16.936;2023-08-08T00:53:44;3.47;;;1.40;;
53903;SDS011;39812;52.430;16.936;2023-08-08T00:56:11;5.40;;;2.05;;
53903;SDS011;39812;52.430;16.936;2023-08-08T00:58:42;4.78;;;1.45;;
53903;SDS011;39812;52.430;16.936;2023-08-08T01:01:10;4.40;;;1.50;;
53903;SDS011;39812;52.430;16.936;2023-08-08T01:03:36;2.30;;;1.05;;
53903;SDS011;39812;52.430;16.936;2023-08-08T01:06:03;5.03;;;1.42;;
53903;SDS011;39812;52.430;16.936;2023-08-08T01:08:45;5.88;;;1.40;;
53903;SDS011;39812;52.430;16.936;2023-08-08T01:11:17;5.47;;;1.27;;
53903;SDS011;39812;52.430;16.936;2023-08-08T01:13:43;3.30;;;1.10;;
53903;SDS011;39812;52.430;16.936;2023-08-08T01:16:11;5.20;;;1.73;;
53903;SDS011;39812;52.430;16.936;2023-08-08T01:18:38;4.78;;;1.52;;
53903;SDS011;39812;52.430;16.936;2023-08-08T01:21:04;3.97;;;1.23;;
53903;SDS011;39812;52.430;16.936;2023-08-08T01:26:10;3.53;;;1.20;;
53903;SDS011;39812;52.430;16.936;2023-08-08T01:28:36;6.22;;;1.40;;
53903;SDS011;39812;52.430;16.936;2023-08-08T01:31:02;5.22;;;1.40;;
53903;SDS011;39812;52.430;16.936;2023-08-08T01:33:28;4.15;;;1.40;;
53903;SDS011;39812;52.430;16.936;2023-08-08T01:35:54;4.25;;;1.45;;
53903;SDS011;39812;52.430;16.936;2023-08-08T01:38:33;3.42;;;1.40;;
53903;SDS011;39812;52.430;16.936;2023-08-08T01:41:01;4.25;;;1.25;;
53903;SDS011;39812;52.430;16.936;2023-08-08T01:43:30;5.25;;;2.40;;
53903;SDS011;39812;52.430;16.936;2023-08-08T01:45:58;5.93;;;1.45;;
53903;SDS011;39812;52.430;16.936;2023-08-08T01:48:25;3.22;;;1.20;;
53903;SDS011;39812;52.430;16.936;2023-08-08T01:50:53;5.47;;;1.92;;
53903;SDS011;39812;52.430;16.936;2023-08-08T01:53:18;6.72;;;1.67;;
53903;SDS011;39812;52.430;16.936;2023-08-08T01:55:44;3.65;;;1.35;;
53903;SDS011;39812;52.430;16.936;2023-08-08T01:58:10;6.10;;;2.08;;
53903;SDS011;39812;52.430;16.936;2023-08-08T02:00:35;3.55;;;1.40;;
53903;SDS011;39812;52.430;16.936;2023-08-08T02:03:01;4.82;;;1.50;;
53903;SDS011;39812;52.430;16.936;2023-08-08T02:05:28;2.45;;;1.17;;
53903;SDS011;39812;52.430;16.936;2023-08-08T02:07:53;3.15;;;1.35;;
53903;SDS011;39812;52.430;16.936;2023-08-08T02:10:19;8.45;;;1.80;;
53903;SDS011;39812;52.430;16.936;2023-08-08T02:12:44;3.65;;;1.23;;
53903;SDS011;39812;52.430;16.936;2023-08-08T02:15:10;4.78;;;1.65;;
53903;SDS011;39812;52.430;16.936;2023-08-08T02:17:37;3.47;;;1.40;;
53903;SDS011;39812;52.430;16.936;2023-08-08T02:20:03;7.78;;;1.50;;
53903;SDS011;39812;52.430;16.936;2023-08-08T02:22:29;2.50;;;1.52;;
53903;SDS011;39812;52.430;16.936;2023-08-08T02:24:55;4.80;;;2.20;;
53903;SDS011;39812;52.430;16.936;2023-08-08T02:27:20;6.50;;;2.45;;
53903;SDS011;39812;52.430;16.936;2023-08-08T02:29:46;10.82;;;1.95;;
53903;SDS011;39812;52.430;16.936;2023-08-08T02:32:12;5.60;;;1.58;;
53903;SDS011;39812;52.430;16.936;2023-08-08T02:34:38;5.25;;;1.40;;
53903;SDS011;39812;52.430;16.936;2023-08-08T02:37:04;2.22;;;1.13;;
53903;SDS011;39812;52.430;16.936;2023-08-08T02:39:29;4.32;;;1.70;;
53903;SDS011;39812;52.430;16.936;2023-08-08T02:41:55;4.82;;;1.35;;
53903;SDS011;39812;52.430;16.936;2023-08-08T02:44:20;6.50;;;2.47;;
53903;SDS011;39812;52.430;16.936;2023-08-08T02:46:47;4.30;;;1.50;;
53903;SDS011;39812;52.430;16.936;2023-08-08T02:49:13;6.05;;;1.80;;
53903;SDS011;39812;52.430;16.936;2023-08-08T02:51:39;3.85;;;1.40;;
53903;SDS011;39812;52.430;16.936;2023-08-08T02:54:05;8.18;;;1.75;;
53903;SDS011;39812;52.430;16.936;2023-08-08T02:56:30;5.00;;;1.50;;
53903;SDS011;39812;52.430;16.936;2023-08-08T02:58:56;4.35;;;1.55;;
53903;SDS011;39812;52.430;16.936;2023-08-08T03:01:22;4.53;;;1.60;;
53903;SDS011;39812;52.430;16.936;2023-08-08T03:03:47;2.88;;;1.50;;
53903;SDS011;39812;52.430;16.936;2023-08-08T03:06:13;8.70;;;1.90;;
53903;SDS011;39812;52.430;16.936;2023-08-08T03:08:39;4.88;;;1.60;;
53903;SDS011;39812;52.430;16.936;2023-08-08T03:11:04;6.32;;;1.63;;
53903;SDS011;39812;52.430;16.936;2023-08-08T03:13:30;7.95;;;1.98;;
53903;SDS011;39812;52.430;16.936;2023-08-08T03:15:55;3.72;;;1.52;;
53903;SDS011;39812;52.430;16.936;2023-08-08T03:18:22;4.88;;;1.77;;
53903;SDS011;39812;52.430;16.936;2023-08-08T03:20:48;5.45;;;1.70;;
53903;SDS011;39812;52.430;16.936;2023-08-08T03:23:13;6.00;;;2.08;;
53903;SDS011;39812;52.430;16.936;2023-08-08T03:25:39;4.40;;;2.10;;
53903;SDS011;39812;52.430;16.936;2023-08-08T03:28:05;5.18;;;2.38;;
53903;SDS011;39812;52.430;16.936;2023-08-08T03:30:30;4.10;;;1.52;;
53903;SDS011;39812;52.430;16.936;2023-08-08T03:32:56;7.38;;;2.17;;
53903;SDS011;39812;52.430;16.936;2023-08-08T03:35:21;4.05;;;1.75;;
53903;SDS011;39812;52.430;16.936;2023-08-08T03:37:47;4.45;;;1.80;;
53903;SDS011;39812;52.430;16.936;2023-08-08T03:40:12;4.45;;;1.73;;
53903;SDS011;39812;52.430;16.936;2023-08-08T03:42:41;6.75;;;1.83;;
53903;SDS011;39812;52.430;16.936;2023-08-08T03:45:07;3.83;;;1.73;;
53903;SDS011;39812;52.430;16.936;2023-08-08T03:47:33;3.33;;;1.55;;
53903;SDS011;39812;52.430;16.936;2023-08-08T03:49:59;4.00;;;1.90;;
53903;SDS011;39812;52.430;16.936;2023-08-08T03:52:24;8.18;;;1.85;;
53903;SDS011;39812;52.430;16.936;2023-08-08T03:54:51;4.75;;;1.67;;
53903;SDS011;39812;52.430;16.936;2023-08-08T03:57:17;6.07;;;2.00;;
53903;SDS011;39812;52.430;16.936;2023-08-08T03:59:42;5.38;;;1.60;;
53903;SDS011;39812;52.430;16.936;2023-08-08T04:02:08;4.85;;;1.70;;
53903;SDS011;39812;52.430;16.936;2023-08-08T04:04:33;6.03;;;2.13;;
53903;SDS011;39812;52.430;16.936;2023-08-08T04:06:59;3.67;;;1.80;;
53903;SDS011;39812;52.430;16.936;2023-08-08T04:09:25;4.60;;;1.63;;
53903;SDS011;39812;52.430;16.936;2023-08-08T04:11:50;4.32;;;2.15;;
53903;SDS011;39812;52.430;16.936;2023-08-08T04:14:16;2.63;;;1.70;;
53903;SDS011;39812;52.430;16.936;2023-08-08T04:16:41;8.30;;;1.85;;
53903;SDS011;39812;52.430;16.936;2023-08-08T04:19:07;4.65;;;1.70;;
53903;SDS011;39812;52.430;16.936;2023-08-08T04:21:33;5.63;;;1.88;;
53903;SDS011;39812;52.430;16.936;2023-08-08T04:23:59;6.50;;;1.67;;
53903;SDS011;39812;52.430;16.936;2023-08-08T04:26:25;6.32;;;2.00;;
53903;SDS011;39812;52.430;16.936;2023-08-08T04:28:51;2.88;;;1.60;;
53903;SDS011;39812;52.430;16.936;2023-08-08T04:31:17;3.53;;;1.80;;
53903;SDS011;39812;52.430;16.936;2023-08-08T04:33:42;5.03;;;1.60;;
53903;SDS011;39812;52.430;16.936;2023-08-08T04:36:08;4.28;;;1.63;;
53903;SDS011;39812;52.430;16.936;2023-08-08T04:38:34;5.82;;;1.80;;
53903;SDS011;39812;52.430;16.936;2023-08-08T04:40:59;3.38;;;1.67;;
53903;SDS011;39812;52.430;16.936;2023-08-08T04:43:25;3.05;;;1.48;;
53903;SDS011;39812;52.430;16.936;2023-08-08T04:45:52;5.40;;;1.50;;
53903;SDS011;39812;52.430;16.936;2023-08-08T04:48:18;2.72;;;2.08;;
53903;SDS011;39812;52.430;16.936;2023-08-08T04:50:45;6.05;;;2.38;;
53903;SDS011;39812;52.430;16.936;2023-08-08T04:53:12;5.10;;;2.03;;
53903;SDS011;39812;52.430;16.936;2023-08-08T04:55:38;4.55;;;1.33;;
53903;SDS011;39812;52.430;16.936;2023-08-08T04:58:04;5.88;;;1.83;;
53903;SDS011;39812;52.430;16.936;2023-08-08T05:00:30;4.28;;;1.52;;
53903;SDS011;39812;52.430;16.936;2023-08-08T05:02:55;3.38;;;1.30;;
53903;SDS011;39812;52.430;16.936;2023-08-08T05:05:21;3.22;;;1.63;;
53903;SDS011;39812;52.430;16.936;2023-08-08T05:07:46;2.90;;;1.33;;
53903;SDS011;39812;52.430;16.936;2023-08-08T05:10:12;4.03;;;1.77;;
53903;SDS011;39812;52.430;16.936;2023-08-08T05:12:37;3.42;;;1.40;;
53903;SDS011;39812;52.430;16.936;2023-08-08T05:15:04;2.58;;;1.50;;
53903;SDS011;39812;52.430;16.936;2023-08-08T05:17:30;4.03;;;1.40;;
53903;SDS011;39812;52.430;16.936;2023-08-08T05:19:59;3.42;;;1.20;;
53903;SDS011;39812;52.430;16.936;2023-08-08T05:22:24;3.28;;;1.30;;
53903;SDS011;39812;52.430;16.936;2023-08-08T05:24:50;3.75;;;1.30;;
53903;SDS011;39812;52.430;16.936;2023-08-08T05:27:16;4.68;;;1.52;;
53903;SDS011;39812;52.430;16.936;2023-08-08T05:29:41;3.20;;;1.35;;
53903;SDS011;39812;52.430;16.936;2023-08-08T05:32:07;5.70;;;1.50;;
53903;SDS011;39812;52.430;16.936;2023-08-08T05:34:33;4.65;;;1.40;;
53903;SDS011;39812;52.430;16.936;2023-08-08T05:36:59;3.97;;;1.33;;
53903;SDS011;39812;52.430;16.936;2023-08-08T05:39:25;3.92;;;1.08;;
53903;SDS011;39812;52.430;16.936;2023-08-08T05:41:51;3.45;;;1.00;;
53903;SDS011;39812;52.430;16.936;2023-08-08T05:44:17;3.05;;;1.20;;
53903;SDS011;39812;52.430;16.936;2023-08-08T05:46:43;2.35;;;1.30;;
53903;SDS011;39812;52.430;16.936;2023-08-08T05:49:08;1.90;;;1.17;;
53903;SDS011;39812;52.430;16.936;2023-08-08T05:51:34;5.40;;;1.30;;
53903;SDS011;39812;52.430;16.936;2023-08-08T05:53:59;3.33;;;1.27;;
53903;SDS011;39812;52.430;16.936;2023-08-08T05:56:27;2.00;;;1.10;;
53903;SDS011;39812;52.430;16.936;2023-08-08T05:59:12;2.67;;;1.17;;
53903;SDS011;39812;52.430;16.936;2023-08-08T06:01:37;2.80;;;0.95;;
53903;SDS011;39812;52.430;16.936;2023-08-08T06:04:03;2.97;;;1.30;;
53903;SDS011;39812;52.430;16.936;2023-08-08T06:06:29;4.82;;;1.50;;
53903;SDS011;39812;52.430;16.936;2023-08-08T06:08:54;3.45;;;1.15;;
53903;SDS011;39812;52.430;16.936;2023-08-08T06:11:20;2.42;;;1.20;;
53903;SDS011;39812;52.430;16.936;2023-08-08T06:13:46;2.63;;;1.13;;
53903;SDS011;39812;52.430;16.936;2023-08-08T06:16:13;2.22;;;1.08;;
53903;SDS011;39812;52.430;16.936;2023-08-08T06:18:40;3.72;;;1.10;;
53903;SDS011;39812;52.430;16.936;2023-08-08T06:21:06;3.75;;;1.38;;
53903;SDS011;39812;52.430;16.936;2023-08-08T06:23:32;2.25;;;1.17;;
53903;SDS011;39812;52.430;16.936;2023-08-08T06:25:57;2.10;;;1.30;;
53903;SDS011;39812;52.430;16.936;2023-08-08T06:28:24;2.28;;;1.27;;
53903;SDS011;39812;52.430;16.936;2023-08-08T06:30:50;2.80;;;1.40;;
53903;SDS011;39812;52.430;16.936;2023-08-08T06:33:16;5.18;;;1.30;;
53903;SDS011;39812;52.430;16.936;2023-08-08T06:35:41;2.50;;;1.20;;
53903;SDS011;39812;52.430;16.936;2023-08-08T06:38:07;4.97;;;1.20;;
53903;SDS011;39812;52.430;16.936;2023-08-08T06:40:33;4.93;;;1.60;;
53903;SDS011;39812;52.430;16.936;2023-08-08T06:42:59;3.65;;;2.15;;
53903;SDS011;39812;52.430;16.936;2023-08-08T06:45:25;3.90;;;1.20;;
53903;SDS011;39812;52.430;16.936;2023-08-08T06:47:51;5.03;;;1.45;;
53903;SDS011;39812;52.430;16.936;2023-08-08T06:50:16;4.72;;;1.30;;
53903;SDS011;39812;52.430;16.936;2023-08-08T06:52:42;4.10;;;1.50;;
53903;SDS011;39812;52.430;16.936;2023-08-08T06:55:08;3.47;;;1.70;;
53903;SDS011;39812;52.430;16.936;2023-08-08T06:57:34;4.47;;;1.30;;
53903;SDS011;39812;52.430;16.936;2023-08-08T07:00:00;4.80;;;1.67;;
53903;SDS011;39812;52.430;16.936;2023-08-08T07:02:26;5.68;;;1.45;;
53903;SDS011;39812;52.430;16.936;2023-08-08T07:04:52;5.97;;;1.80;;
53903;SDS011;39812;52.430;16.936;2023-08-08T07:07:17;2.53;;;1.25;;
53903;SDS011;39812;52.430;16.936;2023-08-08T07:09:43;2.33;;;1.20;;
53903;SDS011;39812;52.430;16.936;2023-08-08T07:12:08;2.80;;;1.35;;
53903;SDS011;39812;52.430;16.936;2023-08-08T07:14:34;4.90;;;1.42;;
53903;SDS011;39812;52.430;16.936;2023-08-08T07:17:00;4.72;;;2.05;;
53903;SDS011;39812;52.430;16.936;2023-08-08T07:19:28;2.90;;;1.42;;
53903;SDS011;39812;52.430;16.936;2023-08-08T07:21:53;2.28;;;1.40;;
53903;SDS011;39812;52.430;16.936;2023-08-08T07:24:19;1.55;;;1.10;;
53903;SDS011;39812;52.430;16.936;2023-08-08T07:26:45;3.75;;;1.20;;
53903;SDS011;39812;52.430;16.936;2023-08-08T07:29:11;8.60;;;2.13;;
53903;SDS011;39812;52.430;16.936;2023-08-08T07:31:37;3.72;;;1.50;;
53903;SDS011;39812;52.430;16.936;2023-08-08T07:34:02;3.33;;;1.40;;
53903;SDS011;39812;52.430;16.936;2023-08-08T07:36:28;4.78;;;1.23;;
53903;SDS011;39812;52.430;16.936;2023-08-08T07:38:54;4.13;;;1.42;;
53903;SDS011;39812;52.430;16.936;2023-08-08T07:41:24;2.67;;;1.30;;
53903;SDS011;39812;52.430;16.936;2023-08-08T07:43:51;3.00;;;1.08;;
53903;SDS011;39812;52.430;16.936;2023-08-08T07:46:17;4.03;;;1.30;;
53903;SDS011;39812;52.430;16.936;2023-08-08T07:48:43;12.65;;;1.52;;
53903;SDS011;39812;52.430;16.936;2023-08-08T07:51:08;3.40;;;1.33;;
53903;SDS011;39812;52.430;16.936;2023-08-08T07:53:34;3.92;;;1.33;;
53903;SDS011;39812;52.430;16.936;2023-08-08T07:55:59;4.40;;;1.35;;
53903;SDS011;39812;52.430;16.936;2023-08-08T07:58:25;3.00;;;1.58;;
53903;SDS011;39812;52.430;16.936;2023-08-08T08:00:52;1.85;;;1.10;;
53903;SDS011;39812;52.430;16.936;2023-08-08T08:03:18;2.78;;;1.40;;
53903;SDS011;39812;52.430;16.936;2023-08-08T08:05:45;5.40;;;1.42;;
53903;SDS011;39812;52.430;16.936;2023-08-08T08:08:10;4.13;;;1.90;;
53903;SDS011;39812;52.430;16.936;2023-08-08T08:10:36;2.17;;;1.20;;
53903;SDS011;39812;52.430;16.936;2023-08-08T08:13:01;2.65;;;1.17;;
53903;SDS011;39812;52.430;16.936;2023-08-08T08:15:27;3.47;;;1.60;;
53903;SDS011;39812;52.430;16.936;2023-08-08T08:17:53;5.28;;;1.10;;
53903;SDS011;39812;52.430;16.936;2023-08-08T08:20:19;2.17;;;1.17;;
53903;SDS011;39812;52.430;16.936;2023-08-08T08:22:45;3.08;;;1.45;;
53903;SDS011;39812;52.430;16.936;2023-08-08T08:25:12;5.78;;;1.90;;
53903;SDS011;39812;52.430;16.936;2023-08-08T08:27:39;3.35;;;1.13;;
53903;SDS011;39812;52.430;16.936;2023-08-08T08:30:05;2.92;;;1.20;;
53903;SDS011;39812;52.430;16.936;2023-08-08T08:32:32;2.88;;;1.15;;
53903;SDS011;39812;52.430;16.936;2023-08-08T08:35:00;6.03;;;1.52;;
53903;SDS011;39812;52.430;16.936;2023-08-08T08:37:27;4.25;;;1.25;;
53903;SDS011;39812;52.430;16.936;2023-08-08T08:39:53;2.50;;;1.45;;
53903;SDS011;39812;52.430;16.936;2023-08-08T08:42:19;5.07;;;1.40;;
53903;SDS011;39812;52.430;16.936;2023-08-08T08:44:44;2.55;;;1.20;;
53903;SDS011;39812;52.430;16.936;2023-08-08T08:47:12;4.57;;;1.42;;
53903;SDS011;39812;52.430;16.936;2023-08-08T08:49:39;3.22;;;1.58;;
53903;SDS011;39812;52.430;16.936;2023-08-08T08:52:07;9.70;;;1.30;;
53903;SDS011;39812;52.430;16.936;2023-08-08T08:54:33;1.95;;;1.23;;
53903;SDS011;39812;52.430;16.936;2023-08-08T08:57:00;6.43;;;1.20;;
53903;SDS011;39812;52.430;16.936;2023-08-08T08:59:25;2.65;;;1.30;;
53903;SDS011;39812;52.430;16.936;2023-08-08T09:01:51;2.40;;;1.40;;
53903;SDS011;39812;52.430;16.936;2023-08-08T09:04:18;4.95;;;1.30;;
53903;SDS011;39812;52.430;16.936;2023-08-08T09:06:46;2.40;;;1.00;;
53903;SDS011;39812;52.430;16.936;2023-08-08T09:09:12;3.67;;;1.30;;
53903;SDS011;39812;52.430;16.936;2023-08-08T09:11:40;6.30;;;1.65;;
53903;SDS011;39812;52.430;16.936;2023-08-08T09:14:16;3.05;;;1.08;;
53903;SDS011;39812;52.430;16.936;2023-08-08T09:16:46;2.55;;;1.23;;
53903;SDS011;39812;52.430;16.936;2023-08-08T09:19:13;2.35;;;1.40;;
53903;SDS011;39812;52.430;16.936;2023-08-08T09:21:39;4.32;;;1.08;;
53903;SDS011;39812;52.430;16.936;2023-08-08T09:24:05;2.20;;;1.10;;
53903;SDS011;39812;52.430;16.936;2023-08-08T09:26:31;2.50;;;1.10;;
53903;SDS011;39812;52.430;16.936;2023-08-08T09:28:57;4.93;;;1.40;;
53903;SDS011;39812;52.430;16.936;2023-08-08T09:31:26;1.45;;;0.80;;
53903;SDS011;39812;52.430;16.936;2023-08-08T09:33:56;2.67;;;1.00;;
53903;SDS011;39812;52.430;16.936;2023-08-08T09:36:23;6.25;;;1.38;;
53903;SDS011;39812;52.430;16.936;2023-08-08T09:38:49;2.80;;;1.05;;
53903;SDS011;39812;52.430;16.936;2023-08-08T09:41:14;4.15;;;0.95;;
53903;SDS011;39812;52.430;16.936;2023-08-08T09:43:42;2.53;;;1.25;;
53903;SDS011;39812;52.430;16.936;2023-08-08T09:46:12;2.00;;;0.90;;
53903;SDS011;39812;52.430;16.936;2023-08-08T09:48:39;2.92;;;0.90;;
53903;SDS011;39812;52.430;16.936;2023-08-08T09:51:06;1.27;;;1.00;;
53903;SDS011;39812;52.430;16.936;2023-08-08T09:53:32;2.15;;;0.70;;
53903;SDS011;39812;52.430;16.936;2023-08-08T09:55:58;2.33;;;1.08;;
53903;SDS011;39812;52.430;16.936;2023-08-08T09:58:28;1.55;;;0.80;;
53903;SDS011;39812;52.430;16.936;2023-08-08T10:00:53;3.50;;;1.00;;
53903;SDS011;39812;52.430;16.936;2023-08-08T10:03:19;2.75;;;0.85;;
53903;SDS011;39812;52.430;16.936;2023-08-08T10:05:45;2.28;;;0.93;;
53903;SDS011;39812;52.430;16.936;2023-08-08T10:08:11;2.95;;;0.90;;
53903;SDS011;39812;52.430;16.936;2023-08-08T10:10:40;3.95;;;0.85;;
53903;SDS011;39812;52.430;16.936;2023-08-08T10:13:09;2.35;;;1.08;;
53903;SDS011;39812;52.430;16.936;2023-08-08T10:15:39;2.25;;;0.73;;
53903;SDS011;39812;52.430;16.936;2023-08-08T10:18:05;1.77;;;0.90;;
53903;SDS011;39812;52.430;16.936;2023-08-08T10:20:31;2.47;;;0.80;;
53903;SDS011;39812;52.430;16.936;2023-08-08T10:23:01;1.15;;;0.70;;
53903;SDS011;39812;52.430;16.936;2023-08-08T10:25:28;2.10;;;0.90;;
53903;SDS011;39812;52.430;16.936;2023-08-08T10:28:02;1.95;;;0.77;;
53903;SDS011;39812;52.430;16.936;2023-08-08T10:30:29;2.53;;;0.90;;
53903;SDS011;39812;52.430;16.936;2023-08-08T10:33:06;1.77;;;0.75;;
53903;SDS011;39812;52.430;16.936;2023-08-08T10:35:59;4.63;;;1.13;;
53903;SDS011;39812;52.430;16.936;2023-08-08T10:38:42;5.53;;;0.93;;
53903;SDS011;39812;52.430;16.936;2023-08-08T10:41:12;3.95;;;0.90;;
53903;SDS011;39812;52.430;16.936;2023-08-08T10:43:46;1.50;;;1.00;;
53903;SDS011;39812;52.430;16.936;2023-08-08T10:46:23;1.83;;;0.75;;
53903;SDS011;39812;52.430;16.936;2023-08-08T10:48:51;4.20;;;1.23;;
53903;SDS011;39812;52.430;16.936;2023-08-08T10:51:18;2.25;;;0.80;;
53903;SDS011;39812;52.430;16.936;2023-08-08T10:53:44;1.98;;;1.10;;
53903;SDS011;39812;52.430;16.936;2023-08-08T10:56:12;1.88;;;0.80;;
53903;SDS011;39812;52.430;16.936;2023-08-08T10:58:40;3.42;;;1.05;;
53903;SDS011;39812;52.430;16.936;2023-08-08T11:01:07;3.88;;;0.80;;
53903;SDS011;39812;52.430;16.936;2023-08-08T11:03:35;4.20;;;1.17;;
53903;SDS011;39812;52.430;16.936;2023-08-08T11:06:02;3.92;;;0.98;;
53903;SDS011;39812;52.430;16.936;2023-08-08T11:08:29;2.63;;;0.90;;
53903;SDS011;39812;52.430;16.936;2023-08-08T11:10:56;6.43;;;0.98;;
53903;SDS011;39812;52.430;16.936;2023-08-08T11:13:22;2.40;;;0.70;;
53903;SDS011;39812;52.430;16.936;2023-08-08T11:15:48;3.55;;;1.20;;
53903;SDS011;39812;52.430;16.936;2023-08-08T11:18:13;2.88;;;1.00;;
53903;SDS011;39812;52.430;16.936;2023-08-08T11:20:39;1.95;;;0.90;;
53903;SDS011;39812;52.430;16.936;2023-08-08T11:23:05;1.08;;;0.80;;
53903;SDS011;39812;52.430;16.936;2023-08-08T11:25:35;2.25;;;0.70;;
53903;SDS011;39812;52.430;16.936;2023-08-08T11:28:01;3.55;;;1.30;;
53903;SDS011;39812;52.430;16.936;2023-08-08T11:30:28;2.08;;;0.77;;
53903;SDS011;39812;52.430;16.936;2023-08-08T11:32:55;2.50;;;0.85;;
53903;SDS011;39812;52.430;16.936;2023-08-08T11:35:21;2.22;;;1.38;;
53903;SDS011;39812;52.430;16.936;2023-08-08T11:37:51;4.10;;;1.40;;
53903;SDS011;39812;52.430;16.936;2023-08-08T11:40:18;3.13;;;1.08;;
53903;SDS011;39812;52.430;16.936;2023-08-08T11:42:45;1.58;;;1.02;;
53903;SDS011;39812;52.430;16.936;2023-08-08T11:45:12;4.10;;;1.02;;
53903;SDS011;39812;52.430;16.936;2023-08-08T11:47:41;2.38;;;1.10;;
53903;SDS011;39812;52.430;16.936;2023-08-08T11:50:08;2.35;;;1.17;;
53903;SDS011;39812;52.430;16.936;2023-08-08T11:52:36;1.75;;;1.02;;
53903;SDS011;39812;52.430;16.936;2023-08-08T11:55:05;1.63;;;0.80;;
53903;SDS011;39812;52.430;16.936;2023-08-08T11:57:35;2.25;;;0.95;;
53903;SDS011;39812;52.430;16.936;2023-08-08T12:00:08;1.52;;;0.63;;
53903;SDS011;39812;52.430;16.936;2023-08-08T12:02:38;0.55;;;0.50;;
53903;SDS011;39812;52.430;16.936;2023-08-08T12:05:12;2.33;;;0.80;;
53903;SDS011;39812;52.430;16.936;2023-08-08T12:07:42;6.75;;;1.10;;
53903;SDS011;39812;52.430;16.936;2023-08-08T12:10:20;1.63;;;0.88;;
53903;SDS011;39812;52.430;16.936;2023-08-08T12:12:54;1.50;;;0.82;;
53903;SDS011;39812;52.430;16.936;2023-08-08T12:15:23;2.92;;;1.08;;
53903;SDS011;39812;52.430;16.936;2023-08-08T12:17:49;1.75;;;0.80;;
53903;SDS011;39812;52.430;16.936;2023-08-08T12:20:15;1.05;;;0.75;;
53903;SDS011;39812;52.430;16.936;2023-08-08T12:22:40;2.00;;;1.00;;
53903;SDS011;39812;52.430;16.936;2023-08-08T12:25:06;1.80;;;0.88;;
53903;SDS011;39812;52.430;16.936;2023-08-08T12:27:33;3.30;;;1.00;;
53903;SDS011;39812;52.430;16.936;2023-08-08T12:29:59;1.67;;;0.93;;
53903;SDS011;39812;52.430;16.936;2023-08-08T12:32:25;3.40;;;1.00;;
53903;SDS011;39812;52.430;16.936;2023-08-08T12:34:53;2.22;;;1.00;;
53903;SDS011;39812;52.430;16.936;2023-08-08T12:37:19;2.75;;;1.00;;
53903;SDS011;39812;52.430;16.936;2023-08-08T12:39:45;2.05;;;0.90;;
53903;SDS011;39812;52.430;16.936;2023-08-08T12:42:10;5.30;;;1.10;;
53903;SDS011;39812;52.430;16.936;2023-08-08T12:44:36;2.63;;;1.35;;
53903;SDS011;39812;52.430;16.936;2023-08-08T12:47:02;1.70;;;0.95;;
53903;SDS011;39812;52.430;16.936;2023-08-08T12:49:27;3.00;;;1.00;;
53903;SDS011;39812;52.430;16.936;2023-08-08T12:51:53;2.33;;;0.80;;
53903;SDS011;39812;52.430;16.936;2023-08-08T12:54:20;2.15;;;1.00;;
53903;SDS011;39812;52.430;16.936;2023-08-08T12:56:46;2.03;;;0.80;;
53903;SDS011;39812;52.430;16.936;2023-08-08T12:59:12;1.70;;;1.00;;
53903;SDS011;39812;52.430;16.936;2023-08-08T13:01:38;5.32;;;1.00;;
53903;SDS011;39812;52.430;16.936;2023-08-08T13:04:03;2.75;;;1.10;;
53903;SDS011;39812;52.430;16.936;2023-08-08T13:06:29;1.65;;;0.82;;
53903;SDS011;39812;52.430;16.936;2023-08-08T13:08:55;1.85;;;1.05;;
53903;SDS011;39812;52.430;16.936;2023-08-08T13:11:21;3.58;;;1.30;;
53903;SDS011;39812;52.430;16.936;2023-08-08T13:13:47;3.40;;;1.27;;
53903;SDS011;39812;52.430;16.936;2023-08-08T13:16:12;3.67;;;1.08;;
53903;SDS011;39812;52.430;16.936;2023-08-08T13:18:38;5.22;;;1.23;;
53903;SDS011;39812;52.430;16.936;2023-08-08T13:21:05;4.05;;;1.20;;
53903;SDS011;39812;52.430;16.936;2023-08-08T13:23:31;4.50;;;1.10;;
53903;SDS011;39812;52.430;16.936;2023-08-08T13:25:57;4.75;;;1.20;;
53903;SDS011;39812;52.430;16.936;2023-08-08T13:28:23;3.05;;;1.15;;
53903;SDS011;39812;52.430;16.936;2023-08-08T13:30:48;2.53;;;1.20;;
53903;SDS011;39812;52.430;16.936;2023-08-08T13:33:14;2.33;;;1.05;;
53903;SDS011;39812;52.430;16.936;2023-08-08T13:35:39;2.03;;;0.98;;
53903;SDS011;39812;52.430;16.936;2023-08-08T13:38:05;2.30;;;1.02;;
53903;SDS011;39812;52.430;16.936;2023-08-08T13:40:32;5.25;;;1.45;;
53903;SDS011;39812;52.430;16.936;2023-08-08T13:42:58;3.90;;;1.20;;
53903;SDS011;39812;52.430;16.936;2023-08-08T13:45:23;1.70;;;0.90;;
53903;SDS011;39812;52.430;16.936;2023-08-08T13:47:49;2.60;;;1.23;;
53903;SDS011;39812;52.430;16.936;2023-08-08T13:50:15;3.33;;;1.10;;
53903;SDS011;39812;52.430;16.936;2023-08-08T13:52:41;4.13;;;1.40;;
53903;SDS011;39812;52.430;16.936;2023-08-08T13:55:07;4.07;;;1.10;;
53903;SDS011;39812;52.430;16.936;2023-08-08T13:57:33;2.22;;;1.10;;
53903;SDS011;39812;52.430;16.936;2023-08-08T13:59:59;2.10;;;1.08;;
53903;SDS011;39812;52.430;16.936;2023-08-08T14:02:25;1.88;;;1.10;;
53903;SDS011;39812;52.430;16.936;2023-08-08T14:04:51;5.05;;;1.20;;
53903;SDS011;39812;52.430;16.936;2023-08-08T14:07:17;2.88;;;1.17;;
53903;SDS011;39812;52.430;16.936;2023-08-08T14:09:43;3.22;;;0.93;;
53903;SDS011;39812;52.430;16.936;2023-08-08T14:12:09;2.92;;;1.20;;
53903;SDS011;39812;52.430;16.936;2023-08-08T14:14:34;2.50;;;1.10;;
53903;SDS011;39812;52.430;16.936;2023-08-08T14:17:00;4.00;;;1.50;;
53903;SDS011;39812;52.430;16.936;2023-08-08T14:19:26;2.15;;;1.00;;
53903;SDS011;39812;52.430;16.936;2023-08-08T14:21:51;2.63;;;1.20;;
53903;SDS011;39812;52.430;16.936;2023-08-08T14:24:17;4.13;;;1.23;;
53903;SDS011;39812;52.430;16.936;2023-08-08T14:26:43;3.88;;;1.20;;
53903;SDS011;39812;52.430;16.936;2023-08-08T14:29:09;1.83;;;1.50;;
53903;SDS011;39812;52.430;16.936;2023-08-08T14:31:34;3.25;;;1.63;;